Decoded Metar for SCIE (CONCEPCION in CHILE) (IATA:CCP) | Meteo·Mobile Aviation Weather
aviador You're here:

SCIE Decoded Metar

CONCEPCION in CHILE
Report Time2019-01-20 11:00:00
UTC Time2019-01-20 11:11:22
Flight Rules ifr IFR
Wind230° at 06 kt
W.Decomp.*RWY 20: 5.5 kt HW 2.4 kt RCW
W.Rank230° ranks 1
Current wind is below 230° avg. (8.9)
Visibility9999 m
Phenomena:N/A
Clouds:Overcast 009 Hf
Expected CloudBase > 800 ft AGL from Temp-Dew spread
Ceiling900 ft
Temp14°C (ISA -1)
Dew Point12°C (88% RH)
AAT12.5°C
QNH1013 hPa
Density Alt135 ft
Elevation52 ft
Report Wrong Elevation
Raw Report
METAR SCIE 201100Z 23006KT 9999 OVC009 14/12 Q1013=

Extra information for SCIE:More info

Metar Taf Metar & Taf Last 4 Metars F.Rules Stats Wind Profile Meteogram Temp Stats Airport Information Weather charts Add Link Nearby VenuesMetar ALERT Operation Metar Decoded Social comments